createdAt,value
2023-04-15T00:00:57.678Z,150535.34
2023-04-15T00:03:23.996Z,150516.41
2023-04-15T00:05:50.050Z,150527.78
2023-04-15T00:08:15.827Z,150517.66
2023-04-15T00:10:43.508Z,150491.19
2023-04-15T00:13:09.719Z,150467.16
2023-04-15T00:15:36.957Z,150455.84
2023-04-15T00:18:03.670Z,150496.22
2023-04-15T00:20:29.733Z,150506.34
2023-04-15T00:22:55.498Z,150493.69
2023-04-15T00:25:21.517Z,150484.84
2023-04-15T00:27:48.055Z,150505.03
2023-04-15T00:30:13.961Z,150498.72
2023-04-15T00:32:39.893Z,150484.84
2023-04-15T00:35:06.068Z,150453.31
2023-04-15T00:37:31.955Z,150479.78
2023-04-15T00:39:57.841Z,150470.97
2023-04-15T00:42:24.839Z,150486.09
2023-04-15T00:44:50.901Z,150458.34
2023-04-15T00:47:18.218Z,150426.78
2023-04-15T00:49:44.033Z,150416.72
2023-04-15T00:52:09.883Z,150431.81
2023-04-15T00:54:36.885Z,150443.19
2023-04-15T00:57:05.136Z,150454.56
2023-04-15T00:59:30.983Z,150424.25
2023-04-15T01:01:57.061Z,150446.97
2023-04-15T01:04:23.373Z,150392.69
2023-04-15T01:06:49.345Z,150409.13
2023-04-15T01:09:15.619Z,150424.25
2023-04-15T01:11:41.501Z,150387.66
2023-04-15T01:14:09.302Z,150404.06
2023-04-15T01:16:38.952Z,150393.97
2023-04-15T01:19:08.091Z,150416.72
2023-04-15T01:21:37.410Z,150424.25
2023-04-15T01:24:09.604Z,150425.53
2023-04-15T01:26:40.467Z,150419.22
2023-04-15T01:29:06.539Z,150381.38
2023-04-15T01:31:32.421Z,150397.72
2023-04-15T01:34:00.197Z,150377.56
2023-04-15T01:36:26.158Z,150377.56
2023-04-15T01:38:52.009Z,150373.78
2023-04-15T01:41:24.692Z,150388.94
2023-04-15T01:43:50.591Z,150386.41
2023-04-15T01:46:17.997Z,150382.63
2023-04-15T01:48:43.896Z,150368.75
2023-04-15T01:51:09.735Z,150366.22
2023-04-15T01:53:35.712Z,150330.91
2023-04-15T01:56:01.695Z,150318.25
2023-04-15T01:58:27.448Z,150318.25
2023-04-15T02:00:53.281Z,150358.63
2023-04-15T02:03:19.371Z,150361.16
2023-04-15T02:05:45.378Z,150367.50
2023-04-15T02:08:11.782Z,150376.28
2023-04-15T02:10:38.101Z,150407.84
2023-04-15T02:13:04.061Z,150409.13
2023-04-15T02:15:30.027Z,150397.72
2023-04-15T02:17:56.226Z,150385.16
2023-04-15T02:20:22.671Z,150376.28
2023-04-15T02:22:48.737Z,150357.38
2023-04-15T02:25:16.365Z,150346.03
2023-04-15T02:27:43.730Z,150318.25
2023-04-15T02:30:10.284Z,150305.63
2023-04-15T02:32:37.352Z,150303.13
2023-04-15T02:35:08.170Z,150310.72
2023-04-15T02:37:39.952Z,150304.38
2023-04-15T02:40:12.660Z,150291.78
2023-04-15T02:42:39.678Z,150304.38
2023-04-15T02:45:07.261Z,150287.97
2023-04-15T02:47:36.253Z,150253.84
2023-04-15T02:50:03.533Z,150232.41
2023-04-15T02:52:29.395Z,150247.56
2023-04-15T02:54:59.726Z,150255.16
2023-04-15T02:57:28.995Z,150229.91
2023-04-15T02:59:55.128Z,150240.03
2023-04-15T03:02:25.166Z,150252.59
2023-04-15T03:04:51.168Z,150232.41
2023-04-15T03:07:17.740Z,150234.94
2023-04-15T03:09:44.000Z,150231.16
2023-04-15T03:12:09.917Z,150252.59
2023-04-15T03:14:38.034Z,150265.22
2023-04-15T03:17:03.846Z,150271.50
2023-04-15T03:19:29.705Z,150260.19
2023-04-15T03:21:56.793Z,150252.59
2023-04-15T03:24:22.668Z,150240.03
2023-04-15T03:26:48.457Z,150237.50
2023-04-15T03:29:14.265Z,150240.03
2023-04-15T03:31:40.854Z,150217.28
2023-04-15T03:34:06.816Z,150247.56
2023-04-15T03:36:32.676Z,150237.50
2023-04-15T03:38:59.078Z,150234.94
2023-04-15T03:41:25.836Z,150287.97
2023-04-15T03:43:51.737Z,150281.63
2023-04-15T03:46:18.071Z,150281.63
2023-04-15T03:48:43.876Z,150285.44
2023-04-15T03:51:09.666Z,150262.72
2023-04-15T03:53:35.585Z,150226.13
2023-04-15T03:56:01.654Z,150245.06
2023-04-15T03:58:27.557Z,150222.34
2023-04-15T04:00:54.230Z,150214.75
2023-04-15T04:03:20.545Z,150217.28
2023-04-15T04:05:46.773Z,150207.22
2023-04-15T04:08:16.036Z,150219.84
2023-04-15T04:10:42.316Z,150193.34
2023-04-15T04:13:08.175Z,150207.22
2023-04-15T04:15:34.090Z,150223.63
2023-04-15T04:18:00.229Z,150224.88
2023-04-15T04:20:26.139Z,150224.88
2023-04-15T04:22:52.012Z,150205.97
2023-04-15T04:25:18.229Z,150223.63
2023-04-15T04:27:45.062Z,150222.34
2023-04-15T04:30:11.304Z,150226.13
2023-04-15T04:32:37.267Z,150214.75
2023-04-15T04:35:04.421Z,150217.28
2023-04-15T04:37:30.378Z,150228.66
2023-04-15T04:39:56.973Z,150228.66
2023-04-15T04:42:22.890Z,150236.19
2023-04-15T04:44:48.675Z,150202.19
2023-04-15T04:47:14.553Z,150207.22
2023-04-15T04:49:40.900Z,150216.03
2023-04-15T04:52:06.716Z,150203.44
2023-04-15T04:54:32.963Z,150199.63
2023-04-15T04:56:59.439Z,150203.44
2023-04-15T04:59:25.224Z,150211.00
2023-04-15T05:01:51.342Z,150207.22
2023-04-15T05:04:17.300Z,150205.97
2023-04-15T05:06:43.282Z,150208.47
2023-04-15T05:09:09.164Z,150217.28
2023-04-15T05:11:34.964Z,150223.63
2023-04-15T05:14:01.643Z,150223.63
2023-04-15T05:16:27.839Z,150216.03
2023-04-15T05:18:53.669Z,150222.34
2023-04-15T05:21:20.096Z,150224.88
2023-04-15T05:23:46.366Z,150217.28
2023-04-15T05:26:12.325Z,150214.75
2023-04-15T05:28:38.582Z,150203.44
2023-04-15T05:31:04.697Z,150238.75
2023-04-15T05:33:30.645Z,150242.53
2023-04-15T05:35:56.412Z,150242.53
2023-04-15T05:38:22.645Z,150238.75
2023-04-15T05:40:48.506Z,150256.41
2023-04-15T05:43:14.285Z,150265.22
2023-04-15T05:45:40.070Z,150242.53
2023-04-15T05:48:06.407Z,150237.50
2023-04-15T05:50:32.265Z,150237.50
2023-04-15T05:52:58.147Z,150200.88
2023-04-15T05:55:23.963Z,150212.25
2023-04-15T05:57:49.799Z,150212.25
2023-04-15T06:00:15.848Z,150223.63
2023-04-15T06:02:41.993Z,150246.31
2023-04-15T06:05:09.282Z,150241.28
2023-04-15T06:07:36.194Z,150204.69
2023-04-15T06:10:03.331Z,150226.13
2023-04-15T06:12:29.272Z,150234.94
2023-04-15T06:14:55.083Z,150245.06
2023-04-15T06:17:21.445Z,150269.00
2023-04-15T06:19:47.299Z,150277.84
2023-04-15T06:22:13.119Z,150289.22
2023-04-15T06:24:39.074Z,150308.16
2023-04-15T06:27:04.916Z,150308.16
2023-04-15T06:29:30.812Z,150319.53
2023-04-15T06:31:56.888Z,150338.44
2023-04-15T06:34:22.878Z,150340.97
2023-04-15T06:36:48.745Z,150324.56
2023-04-15T06:39:14.697Z,150347.31
2023-04-15T06:41:40.855Z,150375.03
2023-04-15T06:44:06.708Z,150391.44
2023-04-15T06:46:32.592Z,150391.44
2023-04-15T06:48:58.448Z,150396.47
2023-04-15T06:51:26.566Z,150428.03
2023-04-15T06:53:52.656Z,150420.50
2023-04-15T06:56:18.470Z,150426.78
2023-04-15T06:58:44.363Z,150465.91
2023-04-15T07:01:10.856Z,150488.66
2023-04-15T07:03:37.119Z,150491.19
2023-04-15T07:06:05.723Z,150500.00
2023-04-15T07:08:32.939Z,150545.47
2023-04-15T07:11:00.726Z,150583.34
2023-04-15T07:13:26.691Z,150566.91
2023-04-15T07:15:52.544Z,150554.28
2023-04-15T07:18:18.406Z,150573.22
2023-04-15T07:20:44.182Z,150497.47
2023-04-15T07:23:10.119Z,150540.38
2023-04-15T07:25:36.022Z,150566.91
2023-04-15T07:28:01.884Z,150584.59
2023-04-15T07:30:33.848Z,150565.66
2023-04-15T07:32:59.753Z,150625.00
2023-04-15T07:35:25.948Z,150608.56
2023-04-15T07:37:51.790Z,150642.66
2023-04-15T07:40:17.818Z,150674.25
2023-04-15T07:42:43.739Z,150685.59
2023-04-15T07:45:10.109Z,150748.78
2023-04-15T07:47:36.078Z,150747.50
2023-04-15T07:50:01.960Z,150768.97
2023-04-15T07:52:27.975Z,150747.50
2023-04-15T07:54:53.818Z,150714.66
2023-04-15T07:57:19.675Z,150766.47
2023-04-15T07:59:45.491Z,150753.81
2023-04-15T08:02:11.726Z,150762.69
2023-04-15T08:04:38.037Z,150833.44
2023-04-15T08:07:04.415Z,150824.56
2023-04-15T08:09:30.580Z,150844.78
2023-04-15T08:11:56.938Z,150843.53
2023-04-15T08:14:23.902Z,150873.88
2023-04-15T08:16:50.218Z,150858.69
2023-04-15T08:19:16.456Z,150843.53
2023-04-15T08:21:42.321Z,150823.31
2023-04-15T08:24:08.170Z,150880.19
2023-04-15T08:26:34.066Z,150823.31
2023-04-15T08:29:00.190Z,150805.63
2023-04-15T08:31:29.106Z,150796.81
2023-04-15T08:33:56.970Z,150762.69
2023-04-15T08:36:22.822Z,150726.06
2023-04-15T08:38:48.683Z,150766.47
2023-04-15T08:41:25.702Z,150803.09
2023-04-15T08:44:03.477Z,150800.59
2023-04-15T08:46:34.168Z,150809.41
2023-04-15T08:49:03.746Z,150823.31
2023-04-15T08:51:31.226Z,150835.97
2023-04-15T08:53:57.602Z,150856.19
2023-04-15T08:56:27.613Z,150849.88
2023-04-15T08:58:53.907Z,150841.00
2023-04-15T09:01:20.392Z,150861.22
2023-04-15T09:03:48.810Z,150872.63
2023-04-15T09:06:16.858Z,150900.44
2023-04-15T09:08:42.993Z,150885.25
2023-04-15T09:11:08.976Z,150942.19
2023-04-15T09:13:34.836Z,150929.53
2023-04-15T09:16:04.989Z,150918.13
2023-04-15T09:18:32.781Z,150887.78
2023-04-15T09:21:13.365Z,150843.53
2023-04-15T09:23:41.280Z,150861.22
2023-04-15T09:26:07.641Z,150900.44
2023-04-15T09:28:41.017Z,150894.13
2023-04-15T09:31:07.176Z,150911.84
2023-04-15T09:33:33.033Z,150862.47
2023-04-15T09:36:02.914Z,150818.28
2023-04-15T09:38:28.827Z,150839.75
2023-04-15T09:40:55.313Z,150868.84
2023-04-15T09:43:21.437Z,150903.00
2023-04-15T09:45:52.802Z,150905.53
2023-04-15T09:48:28.267Z,150878.91
2023-04-15T09:50:57.289Z,150881.44
2023-04-15T09:53:24.606Z,150866.31
2023-04-15T09:55:54.344Z,150837.22
2023-04-15T09:58:22.647Z,150780.38
2023-04-15T10:00:50.418Z,150770.25
2023-04-15T10:03:21.665Z,150763.94
2023-04-15T10:05:52.181Z,150755.06
2023-04-15T10:08:20.960Z,150723.53
2023-04-15T10:10:47.853Z,150686.91
2023-04-15T10:13:19.974Z,150703.28
2023-04-15T10:15:52.734Z,150694.47
2023-04-15T10:18:20.895Z,150652.78
2023-04-15T10:20:48.060Z,150693.19
2023-04-15T10:23:14.894Z,150655.31
2023-04-15T10:25:41.435Z,150676.78
2023-04-15T10:28:08.317Z,150674.25
2023-04-15T10:30:36.046Z,150666.66
2023-04-15T10:33:03.303Z,150684.34
2023-04-15T10:35:31.428Z,150655.31
2023-04-15T10:37:57.459Z,150647.72
2023-04-15T10:40:31.099Z,150654.06
2023-04-15T10:42:58.869Z,150680.56
2023-04-15T10:45:32.023Z,150646.44
2023-04-15T10:48:02.891Z,150594.66
2023-04-15T10:50:31.984Z,150584.59
2023-04-15T10:52:58.557Z,150589.63
2023-04-15T10:55:32.234Z,150656.56
2023-04-15T10:58:00.733Z,150602.28
2023-04-15T11:00:31.156Z,150592.16
2023-04-15T11:03:08.129Z,150570.69
2023-04-15T11:05:53.413Z,150566.91
2023-04-15T11:08:20.277Z,150555.53
2023-04-15T11:10:46.001Z,150525.25
2023-04-15T11:13:11.785Z,150535.34
2023-04-15T11:15:44.266Z,150517.66
2023-04-15T11:18:21.402Z,150536.59
2023-04-15T11:20:54.243Z,150564.41
2023-04-15T11:23:48.864Z,150549.25
2023-04-15T11:26:15.149Z,150584.59
2023-04-15T11:28:44.047Z,150573.22
2023-04-15T11:31:12.812Z,150592.16
2023-04-15T11:34:00.847Z,150593.41
2023-04-15T11:36:28.685Z,150594.66
2023-04-15T11:38:55.284Z,150583.34
2023-04-15T11:41:22.448Z,150571.94
2023-04-15T11:43:49.655Z,150577.00
2023-04-15T11:46:16.057Z,150558.06
2023-04-15T11:48:44.601Z,150566.91
2023-04-15T11:51:11.411Z,150573.22
2023-04-15T11:53:45.925Z,150530.31
2023-04-15T11:56:20.351Z,150506.34
2023-04-15T11:58:47.045Z,150503.75
2023-04-15T12:01:13.380Z,150513.88
2023-04-15T12:03:42.687Z,150542.94
2023-04-15T12:06:20.678Z,150582.06
2023-04-15T12:08:55.938Z,150571.94
2023-04-15T12:11:36.687Z,150594.66
2023-04-15T12:14:08.675Z,150568.19
2023-04-15T12:17:02.371Z,150587.13
2023-04-15T12:19:39.359Z,150599.75
2023-04-15T12:22:10.388Z,150584.59
2023-04-15T12:24:37.750Z,150503.75
2023-04-15T12:27:08.605Z,150530.31
2023-04-15T12:29:36.338Z,150541.63
2023-04-15T12:32:14.972Z,150559.31
2023-04-15T12:34:42.805Z,150558.06
2023-04-15T12:37:10.911Z,150535.34
2023-04-15T12:39:39.262Z,150517.66
2023-04-15T12:42:05.927Z,150526.53
2023-04-15T12:44:33.177Z,150532.81
2023-04-15T12:46:59.552Z,150579.56
2023-04-15T12:49:26.173Z,150588.38
2023-04-15T12:51:56.945Z,150588.38
2023-04-15T12:54:23.222Z,150542.94
2023-04-15T12:56:50.298Z,150526.53
2023-04-15T12:59:19.708Z,150494.94
2023-04-15T13:01:47.423Z,150503.75
2023-04-15T13:04:14.318Z,150516.41
2023-04-15T13:06:40.319Z,150535.34
2023-04-15T13:09:06.286Z,150546.72
2023-04-15T13:11:33.265Z,150560.63
2023-04-15T13:14:04.735Z,150575.72
2023-04-15T13:16:31.400Z,150571.94
2023-04-15T13:19:02.272Z,150558.06
2023-04-15T13:21:28.401Z,150561.88
2023-04-15T13:23:54.587Z,150549.25
2023-04-15T13:26:20.613Z,150551.75
2023-04-15T13:28:46.764Z,150525.25
2023-04-15T13:31:12.858Z,150558.06
2023-04-15T13:33:38.762Z,150498.72
2023-04-15T13:36:06.101Z,150521.44
2023-04-15T13:38:32.111Z,150532.81
2023-04-15T13:40:57.957Z,150542.94
2023-04-15T13:43:23.840Z,150550.50
2023-04-15T13:45:49.915Z,150547.97
2023-04-15T13:48:16.353Z,150526.53
2023-04-15T13:50:44.622Z,150508.84
2023-04-15T13:53:11.746Z,150493.69
2023-04-15T13:55:40.939Z,150517.66
2023-04-15T13:58:07.889Z,150501.25
2023-04-15T14:00:33.709Z,150532.81
2023-04-15T14:02:59.801Z,150542.94
2023-04-15T14:05:26.177Z,150502.50
2023-04-15T14:07:52.293Z,150506.34
2023-04-15T14:10:18.422Z,150484.84
2023-04-15T14:12:44.582Z,150457.09
2023-04-15T14:15:10.647Z,150474.75
2023-04-15T14:17:36.541Z,150482.31
2023-04-15T14:20:02.851Z,150508.84
2023-04-15T14:22:28.746Z,150534.06
2023-04-15T14:24:55.007Z,150500.00
2023-04-15T14:27:21.174Z,150463.38
2023-04-15T14:29:47.054Z,150472.25
2023-04-15T14:32:13.252Z,150476.03
2023-04-15T14:34:40.219Z,150464.63
2023-04-15T14:37:06.293Z,150468.41
2023-04-15T14:39:32.368Z,150458.34
2023-04-15T14:41:58.628Z,150449.50
2023-04-15T14:44:24.541Z,150468.41
2023-04-15T14:46:51.031Z,150486.09
2023-04-15T14:49:17.071Z,150491.19
2023-04-15T14:51:42.992Z,150483.56
2023-04-15T14:54:08.795Z,150522.69
2023-04-15T14:56:35.107Z,150484.84
2023-04-15T14:59:00.930Z,150489.91
2023-04-15T15:01:27.375Z,150477.28
2023-04-15T15:03:53.356Z,150436.91
2023-04-15T15:06:21.707Z,150454.56
2023-04-15T15:08:48.938Z,150468.41
2023-04-15T15:11:16.369Z,150482.31
2023-04-15T15:13:42.360Z,150476.03
2023-04-15T15:16:08.504Z,150489.91
2023-04-15T15:18:35.406Z,150472.25
2023-04-15T15:21:01.518Z,150452.00
2023-04-15T15:23:27.638Z,150436.91
2023-04-15T15:25:53.767Z,150450.75
2023-04-15T15:28:21.171Z,150468.41
2023-04-15T15:30:47.336Z,150474.75
2023-04-15T15:33:13.209Z,150474.75
2023-04-15T15:35:39.210Z,150458.34
2023-04-15T15:38:05.638Z,150470.97
2023-04-15T15:40:31.614Z,150450.75
2023-04-15T15:42:57.475Z,150449.50
2023-04-15T15:45:23.343Z,150454.56
2023-04-15T15:47:49.409Z,150459.59
2023-04-15T15:50:15.275Z,150444.47
2023-04-15T15:52:45.208Z,150458.34
2023-04-15T15:55:11.124Z,150444.47
2023-04-15T15:57:37.033Z,150420.50
2023-04-15T16:00:11.928Z,150448.22
2023-04-15T16:05:07.743Z,150440.69
2023-04-15T16:07:33.573Z,150481.06
2023-04-15T16:09:59.457Z,150474.75
2023-04-15T16:12:26.147Z,150415.41
2023-04-15T16:14:52.116Z,150416.72
2023-04-15T16:17:18.039Z,150439.41
2023-04-15T16:20:00.020Z,150454.56
2023-04-15T16:22:27.793Z,150438.16
2023-04-15T16:24:53.726Z,150458.34
2023-04-15T16:27:19.586Z,150459.59
2023-04-15T16:29:45.598Z,150436.91
2023-04-15T16:32:11.461Z,150407.84
2023-04-15T16:34:38.511Z,150415.41
2023-04-15T16:37:04.776Z,150386.41
2023-04-15T16:39:30.749Z,150388.94
2023-04-15T16:41:57.023Z,150386.41
2023-04-15T16:44:24.064Z,150363.72
2023-04-15T16:46:50.293Z,150387.66
2023-04-15T16:49:16.346Z,150401.56
2023-04-15T16:51:42.304Z,150401.56
2023-04-15T16:54:08.215Z,150387.66
2023-04-15T16:56:34.065Z,150390.19
2023-04-15T16:58:59.918Z,150392.69
2023-04-15T17:01:25.932Z,150399.03
2023-04-15T17:03:55.368Z,150381.38
2023-04-15T17:06:22.138Z,150386.41
2023-04-15T17:08:48.188Z,150391.44
2023-04-15T17:11:14.762Z,150368.75
2023-04-15T17:13:40.814Z,150353.59
2023-04-15T17:16:07.397Z,150349.81
2023-04-15T17:18:33.306Z,150381.38
2023-04-15T17:20:59.255Z,150370.00
2023-04-15T17:23:26.548Z,150358.63
2023-04-15T17:25:52.913Z,150354.84
2023-04-15T17:28:18.794Z,150383.91
2023-04-15T17:30:44.825Z,150344.78
2023-04-15T17:33:57.805Z,150344.78
2023-04-15T17:35:57.365Z,150354.84
2023-04-15T17:38:23.178Z,150387.66
2023-04-15T17:40:49.050Z,150348.56
2023-04-15T17:43:14.957Z,150339.69
2023-04-15T17:45:41.085Z,150363.72
2023-04-15T17:48:07.126Z,150343.47
2023-04-15T17:50:33.496Z,150338.44
2023-04-15T17:52:59.465Z,150340.97
2023-04-15T17:55:25.475Z,150340.97
2023-04-15T17:57:51.436Z,150363.72
2023-04-15T18:00:19.250Z,150353.59
2023-04-15T18:02:45.337Z,150354.84
2023-04-15T18:05:11.637Z,150359.88
2023-04-15T18:07:37.635Z,150361.16
2023-04-15T18:10:04.110Z,150319.53
2023-04-15T18:12:30.339Z,150342.22
2023-04-15T18:14:56.225Z,150328.38
2023-04-15T18:17:22.199Z,150320.78
2023-04-15T18:19:48.290Z,150328.38
2023-04-15T18:22:17.086Z,150330.91
2023-04-15T18:24:43.236Z,150323.28
2023-04-15T18:27:09.199Z,150332.16
2023-04-15T18:29:35.795Z,150343.47
2023-04-15T18:32:02.437Z,150323.28
2023-04-15T18:34:29.158Z,150332.16
2023-04-15T18:36:57.054Z,150343.47
2023-04-15T18:39:27.018Z,150366.22
2023-04-15T18:41:53.630Z,150352.34
2023-04-15T18:44:19.724Z,150364.97
2023-04-15T18:46:45.628Z,150376.28
2023-04-15T18:49:11.965Z,150383.91
2023-04-15T18:51:37.963Z,150349.81
2023-04-15T18:54:03.936Z,150382.63
2023-04-15T18:56:30.255Z,150375.03
2023-04-15T18:59:08.920Z,150385.16
2023-04-15T19:01:42.957Z,150381.38
2023-04-15T19:04:09.645Z,150378.81
2023-04-15T19:06:35.818Z,150381.38
2023-04-15T19:09:01.956Z,150385.16
2023-04-15T19:11:28.009Z,150358.63
2023-04-15T19:13:54.006Z,150366.22
2023-04-15T19:16:20.361Z,150375.03
2023-04-15T19:18:46.879Z,150373.78
2023-04-15T19:21:12.895Z,150354.84
2023-04-15T19:23:39.052Z,150371.25
2023-04-15T19:26:07.472Z,150358.63
2023-04-15T19:28:33.593Z,150377.56
2023-04-15T19:30:59.555Z,150348.56
2023-04-15T19:33:30.354Z,150370.00
2023-04-15T19:36:04.699Z,150358.63
2023-04-15T19:38:32.023Z,150378.81
2023-04-15T19:40:59.016Z,150385.16
2023-04-15T19:43:25.191Z,150382.63
2023-04-15T19:45:53.646Z,150364.97
2023-04-15T19:48:20.143Z,150364.97
2023-04-15T19:50:46.314Z,150359.88
2023-04-15T19:53:12.321Z,150362.41
2023-04-15T19:55:38.655Z,150357.38
2023-04-15T19:58:05.994Z,150351.06
2023-04-15T20:00:31.991Z,150322.03
2023-04-15T20:02:57.979Z,150343.47
2023-04-15T20:05:24.142Z,150327.13
2023-04-15T20:07:53.261Z,150335.94
2023-04-15T20:10:22.688Z,150335.94
2023-04-15T20:12:52.752Z,150342.22
2023-04-15T20:15:21.877Z,150324.56
2023-04-15T20:17:47.804Z,150378.81
2023-04-15T20:20:13.673Z,150349.81
2023-04-15T20:22:40.418Z,150315.75
2023-04-15T20:25:09.419Z,150329.63
2023-04-15T20:27:35.380Z,150333.41
2023-04-15T20:30:03.089Z,150318.25
2023-04-15T20:32:31.152Z,150318.25
2023-04-15T20:34:57.041Z,150339.69
2023-04-15T20:37:22.865Z,150330.91
2023-04-15T20:39:48.823Z,150295.56
2023-04-15T20:42:14.718Z,150334.66
2023-04-15T20:44:40.576Z,150296.81
2023-04-15T20:47:06.757Z,150285.44
2023-04-15T20:49:37.050Z,150315.75
2023-04-15T20:52:04.901Z,150285.44
2023-04-15T20:54:30.823Z,150310.72
2023-04-15T20:56:57.511Z,150296.81
2023-04-15T20:59:26.767Z,150301.84
2023-04-15T21:01:53.024Z,150299.34
2023-04-15T21:04:20.219Z,150287.97
2023-04-15T21:06:46.915Z,150291.78
2023-04-15T21:09:13.174Z,150325.81
2023-04-15T21:11:57.344Z,150306.88
2023-04-15T21:14:24.983Z,150303.13
2023-04-15T21:16:50.921Z,150294.31
2023-04-15T21:19:16.755Z,150298.09
2023-04-15T21:21:42.618Z,150310.72
2023-04-15T21:24:08.535Z,150282.94
2023-04-15T21:26:35.310Z,150276.59
2023-04-15T21:29:01.428Z,150299.34
2023-04-15T21:31:27.306Z,150295.56
2023-04-15T21:33:53.144Z,150315.75
2023-04-15T21:36:19.054Z,150287.97
2023-04-15T21:38:45.117Z,150304.38
2023-04-15T21:41:13.939Z,150298.09
2023-04-15T21:43:39.807Z,150304.38
2023-04-15T21:46:23.229Z,150295.56
2023-04-15T21:48:52.033Z,150300.59
2023-04-15T21:51:17.986Z,150298.09
2023-04-15T21:53:43.906Z,150303.13
2023-04-15T21:56:09.820Z,150282.94
2023-04-15T21:58:38.895Z,150285.44
2023-04-15T22:01:04.964Z,150294.31
2023-04-15T22:03:33.001Z,150295.56
2023-04-15T22:05:59.961Z,150295.56
2023-04-15T22:08:25.912Z,150294.31
2023-04-15T22:10:51.694Z,150298.09
2023-04-15T22:13:17.697Z,150308.16
2023-04-15T22:15:43.515Z,150317.00
2023-04-15T22:18:11.515Z,150335.94
2023-04-15T22:20:40.279Z,150322.03
2023-04-15T22:23:09.156Z,150299.34
2023-04-15T22:25:36.492Z,150300.59
2023-04-15T22:28:07.571Z,150295.56
2023-04-15T22:30:40.802Z,150305.63
2023-04-15T22:33:08.474Z,150298.09
2023-04-15T22:35:36.387Z,150305.63
2023-04-15T22:38:03.531Z,150290.47
2023-04-15T22:40:29.367Z,150289.22
2023-04-15T22:42:55.335Z,150271.50
2023-04-15T22:45:21.287Z,150257.69
2023-04-15T22:47:47.231Z,150285.44
2023-04-15T22:50:13.077Z,150269.00
2023-04-15T22:52:39.000Z,150299.34
2023-04-15T22:55:05.810Z,150296.81
2023-04-15T22:57:31.717Z,150266.50
2023-04-15T22:59:57.642Z,150271.50
2023-04-15T23:02:23.568Z,150279.13
2023-04-15T23:04:49.641Z,150256.41
2023-04-15T23:07:15.494Z,150272.81
2023-04-15T23:09:41.353Z,150293.06
2023-04-15T23:12:07.215Z,150290.47
2023-04-15T23:14:33.107Z,150281.63
2023-04-15T23:16:59.001Z,150282.94
2023-04-15T23:19:24.944Z,150294.31
2023-04-15T23:21:50.827Z,150294.31
2023-04-15T23:24:17.069Z,150290.47
2023-04-15T23:26:43.147Z,150299.34
2023-04-15T23:29:09.966Z,150287.97
2023-04-15T23:31:36.051Z,150290.47
2023-04-15T23:34:02.496Z,150298.09
2023-04-15T23:36:28.274Z,150306.88
2023-04-15T23:38:54.156Z,150300.59
2023-04-15T23:41:19.945Z,150309.47
2023-04-15T23:43:45.741Z,150287.97
2023-04-15T23:46:11.558Z,150281.63
2023-04-15T23:48:37.860Z,150267.75
2023-04-15T23:51:04.470Z,150271.50
2023-04-15T23:53:31.081Z,150274.09
2023-04-15T23:55:56.952Z,150293.06
2023-04-15T23:58:23.188Z,150287.97
